Time;durP1;ratioP1;P1;durP2;ratioP2;P2;SDS_P1;SDS_P2;PMS_P1;PMS_P2;Temp;Humidity;BMP_temperature;BMP_pressure;BME280_temperature;BME280_humidity;BME280_pressure;Samples;Min_cycle;Max_cycle;Signal;HPM_P1;HPM_P2
2022/09/10 00:01:28;;;;;;;7.22;4.88;;;15.10;99.90;;;;;;5074324;28;20056;-70
2022/09/10 00:03:55;;;;;;;6.68;5.30;;;15.20;99.90;;;;;;5074332;28;20058;-70
2022/09/10 00:06:26;;;;;;;7.15;5.43;;;15.10;99.90;;;;;;5074326;28;20401;-70
2022/09/10 00:08:55;;;;;;;7.35;5.18;;;15.10;99.90;;;;;;5075118;28;20048;-70
2022/09/10 00:11:21;;;;;;;7.00;5.80;;;15.10;99.90;;;;;;5074241;28;20044;-70
2022/09/10 00:13:46;;;;;;;7.50;6.10;;;15.20;99.90;;;;;;5074059;28;20062;-70
2022/09/10 00:16:14;;;;;;;6.30;5.57;;;15.10;99.90;;;;;;5074411;28;20040;-70
2022/09/10 00:18:40;;;;;;;7.53;5.53;;;15.10;99.90;;;;;;5074837;28;20110;-70
2022/09/10 00:21:09;;;;;;;7.57;5.47;;;15.20;99.90;;;;;;5074520;28;20431;-70
2022/09/10 00:23:36;;;;;;;8.73;5.63;;;15.20;99.90;;;;;;5073950;28;20534;-70
2022/09/10 00:26:12;;;;;;;7.07;5.97;;;15.20;99.90;;;;;;5074394;28;20056;-70
2022/09/10 00:28:38;;;;;;;6.85;5.65;;;15.20;99.90;;;;;;5072764;28;20474;-70
2022/09/10 00:31:04;;;;;;;7.13;5.38;;;15.10;99.90;;;;;;5074407;28;20049;-70
2022/09/10 00:33:29;;;;;;;6.25;5.30;;;15.10;99.90;;;;;;5073835;28;20388;-70
2022/09/10 00:35:58;;;;;;;7.35;5.60;;;15.10;99.90;;;;;;5073436;28;20052;-70
2022/09/10 00:38:26;;;;;;;8.13;5.63;;;15.10;99.90;;;;;;5072540;28;20044;-70
2022/09/10 00:40:52;;;;;;;6.82;5.47;;;15.20;99.90;;;;;;5073599;28;20123;-70
2022/09/10 00:43:20;;;;;;;7.63;5.97;;;15.10;99.90;;;;;;5073229;28;20128;-70
2022/09/10 00:45:53;;;;;;;7.53;5.88;;;15.20;99.90;;;;;;5074141;28;20131;-70
2022/09/10 00:48:29;;;;;;;8.15;6.07;;;15.20;99.90;;;;;;5073887;28;20485;-70
2022/09/10 00:51:04;;;;;;;7.32;5.95;;;15.20;99.90;;;;;;5073589;28;20052;-70
2022/09/10 00:53:31;;;;;;;6.47;5.68;;;15.20;99.90;;;;;;5073666;28;20419;-70
2022/09/10 00:56:01;;;;;;;6.90;5.72;;;15.20;99.90;;;;;;5072750;28;20056;-70
2022/09/10 00:58:28;;;;;;;7.72;5.78;;;15.10;99.90;;;;;;5073404;28;20095;-70
2022/09/10 01:00:58;;;;;;;7.35;5.82;;;15.20;99.90;;;;;;5073697;28;20056;-70
2022/09/10 01:03:24;;;;;;;7.38;5.93;;;15.20;99.90;;;;;;5073918;28;20060;-70
2022/09/10 01:05:50;;;;;;;7.88;5.85;;;15.10;99.90;;;;;;5073429;28;20052;-70
2022/09/10 01:08:17;;;;;;;8.23;6.05;;;15.10;99.90;;;;;;5073648;28;20124;-70
2022/09/10 01:11:19;;;;;;;7.50;6.10;;;15.10;99.90;;;;;;5074013;28;20075;-70
2022/09/10 01:14:19;;;;;;;8.18;6.03;;;15.10;99.90;;;;;;5057895;28;20057;-70
2022/09/10 01:17:06;;;;;;;7.32;5.82;;;15.10;99.90;;;;;;5073255;28;20088;-70
2022/09/10 01:20:01;;;;;;;8.27;6.28;;;15.10;99.90;;;;;;5073818;28;20161;-70
2022/09/10 01:22:43;;;;;;;9.20;6.57;;;15.10;99.90;;;;;;5073185;28;20059;-70
2022/09/10 01:25:32;;;;;;;9.02;6.03;;;15.10;99.90;;;;;;5072704;28;20044;-70
2022/09/10 01:28:06;;;;;;;7.45;5.90;;;15.10;99.90;;;;;;5070501;28;20064;-70
2022/09/10 01:30:39;;;;;;;7.60;5.97;;;15.10;99.90;;;;;;5073978;28;20049;-70
2022/09/10 01:33:14;;;;;;;8.05;6.00;;;15.10;99.90;;;;;;5073128;28;20037;-70
2022/09/10 01:35:52;;;;;;;8.43;6.55;;;15.10;99.90;;;;;;5073333;28;20496;-70
2022/09/10 01:38:30;;;;;;;7.63;5.88;;;15.10;99.90;;;;;;5073592;28;20126;-71
2022/09/10 01:40:56;;;;;;;7.15;5.90;;;15.10;99.90;;;;;;5072232;28;20052;-70
2022/09/10 01:43:22;;;;;;;8.35;6.15;;;15.10;99.90;;;;;;5072876;28;20040;-70
2022/09/10 01:45:51;;;;;;;7.57;6.05;;;15.20;99.90;;;;;;5072891;28;20518;-70
2022/09/10 01:48:41;;;;;;;8.05;6.30;;;15.20;99.90;;;;;;5071907;28;20048;-70
2022/09/10 01:51:13;;;;;;;8.73;6.53;;;15.20;99.90;;;;;;5073011;28;20057;-70
2022/09/10 01:53:55;;;;;;;8.43;5.90;;;15.20;99.90;;;;;;5072997;28;20055;-70
2022/09/10 01:56:23;;;;;;;7.60;5.95;;;15.20;99.90;;;;;;5073686;28;20435;-70
2022/09/10 01:58:53;;;;;;;7.35;5.97;;;15.20;99.90;;;;;;5072629;28;20044;-70
2022/09/10 02:01:46;;;;;;;8.55;6.57;;;15.20;99.90;;;;;;5072532;28;20493;-70
2022/09/10 02:04:13;;;;;;;7.93;6.05;;;15.30;99.90;;;;;;5073373;28;20429;-70
2022/09/10 02:06:42;;;;;;;7.60;5.97;;;15.20;99.90;;;;;;5071240;28;20619;-70
2022/09/10 02:09:09;;;;;;;8.50;6.35;;;15.30;99.90;;;;;;5073262;28;20045;-70
2022/09/10 02:11:50;;;;;;;7.97;6.40;;;15.30;99.90;;;;;;5072712;28;20044;-70
2022/09/10 02:14:16;;;;;;;8.75;6.55;;;15.30;99.90;;;;;;5072330;28;20508;-70
2022/09/10 02:16:53;;;;;;;8.27;6.22;;;15.30;99.90;;;;;;5072663;28;20048;-70
2022/09/10 02:19:19;;;;;;;7.68;6.25;;;15.30;99.90;;;;;;5073174;28;20055;-70
2022/09/10 02:21:45;;;;;;;7.95;6.13;;;15.30;99.90;;;;;;5071822;28;20123;-70
2022/09/10 02:24:12;;;;;;;7.80;6.28;;;15.30;99.90;;;;;;5072621;28;20040;-70
2022/09/10 02:26:41;;;;;;;8.85;6.10;;;15.30;99.90;;;;;;5072502;28;20424;-70
2022/09/10 02:29:08;;;;;;;9.30;7.15;;;15.30;99.90;;;;;;5072419;28;20044;-70
2022/09/10 02:31:34;;;;;;;9.82;6.88;;;15.20;99.90;;;;;;5054679;28;20048;-70
2022/09/10 02:34:02;;;;;;;9.10;7.43;;;15.20;99.90;;;;;;5072691;28;20045;-70
2022/09/10 02:36:28;;;;;;;8.20;6.70;;;15.20;99.90;;;;;;5072518;28;20056;-70
2022/09/10 02:38:57;;;;;;;7.95;6.50;;;15.20;99.90;;;;;;5075165;28;20362;-70
2022/09/10 02:41:24;;;;;;;9.55;6.78;;;15.20;99.90;;;;;;5075942;28;20048;-70
2022/09/10 02:43:53;;;;;;;8.32;6.57;;;15.20;99.90;;;;;;5075900;28;20048;-70
2022/09/10 02:46:19;;;;;;;9.13;6.68;;;15.20;99.90;;;;;;5075827;28;20456;-70
2022/09/10 02:48:44;;;;;;;8.48;6.50;;;15.20;99.90;;;;;;5075817;28;20131;-70
2022/09/10 02:51:11;;;;;;;8.70;7.22;;;15.20;99.90;;;;;;5075801;28;20048;-70
2022/09/10 02:53:37;;;;;;;9.68;7.13;;;15.20;99.90;;;;;;5075406;28;20549;-70
2022/09/10 02:56:03;;;;;;;11.13;7.25;;;15.20;99.90;;;;;;5075444;28;20503;-70
2022/09/10 02:58:30;;;;;;;10.30;7.25;;;15.20;99.90;;;;;;5075539;28;20051;-70
2022/09/10 03:01:13;;;;;;;10.88;7.40;;;15.20;99.90;;;;;;5075405;28;20055;-70
2022/09/10 03:03:40;;;;;;;10.27;7.45;;;15.30;99.90;;;;;;5074332;28;20127;-70
2022/09/10 03:06:06;;;;;;;9.13;7.30;;;15.20;99.90;;;;;;5075529;28;20052;-70
2022/09/10 03:08:32;;;;;;;10.05;7.45;;;15.20;99.90;;;;;;5075570;28;20049;-70
2022/09/10 03:10:58;;;;;;;9.05;6.95;;;15.20;99.90;;;;;;5075794;28;20052;-70
2022/09/10 03:13:27;;;;;;;8.95;6.90;;;15.20;99.90;;;;;;5075281;28;20045;-70
2022/09/10 03:15:54;;;;;;;10.88;7.20;;;15.20;99.90;;;;;;5075355;28;20040;-70
2022/09/10 03:18:21;;;;;;;10.57;7.40;;;15.20;99.90;;;;;;5075327;28;20041;-70
2022/09/10 03:20:48;;;;;;;10.35;6.88;;;15.20;99.90;;;;;;5075275;28;20040;-70
2022/09/10 03:23:14;;;;;;;9.90;7.50;;;15.20;99.90;;;;;;5075142;28;20048;-70
2022/09/10 03:25:40;;;;;;;7.95;6.75;;;15.20;99.90;;;;;;5073843;28;20051;-70
2022/09/10 03:28:05;;;;;;;9.23;7.28;;;15.20;99.90;;;;;;5073679;28;20040;-69
2022/09/10 03:30:32;;;;;;;10.20;7.22;;;15.20;99.90;;;;;;5074696;28;20048;-70
2022/09/10 03:32:57;;;;;;;10.27;7.00;;;15.20;99.90;;;;;;5074941;28;20037;-70
2022/09/10 03:35:23;;;;;;;10.70;7.32;;;15.20;99.90;;;;;;5074934;28;20140;-70
2022/09/10 03:37:49;;;;;;;9.60;7.00;;;15.20;99.90;;;;;;5075513;28;20051;-70
2022/09/10 03:40:15;;;;;;;9.85;6.63;;;15.20;99.90;;;;;;5074834;28;20376;-70
2022/09/10 03:42:41;;;;;;;13.18;7.18;;;15.20;99.90;;;;;;5074813;28;20079;-70
2022/09/10 03:45:09;;;;;;;10.25;7.50;;;15.20;99.90;;;;;;5074822;28;20051;-69
2022/09/10 03:47:38;;;;;;;11.27;7.13;;;15.20;99.90;;;;;;5075109;28;20044;-70
2022/09/10 03:50:05;;;;;;;11.63;7.15;;;15.20;99.90;;;;;;5075212;28;20131;-70
2022/09/10 03:52:31;;;;;;;12.05;7.35;;;15.20;99.90;;;;;;5074651;28;20074;-70
2022/09/10 03:54:56;;;;;;;10.90;7.30;;;15.20;99.90;;;;;;5074595;28;20040;-70
2022/09/10 03:57:22;;;;;;;12.20;7.47;;;15.20;99.90;;;;;;5074943;28;20045;-70
2022/09/10 03:59:48;;;;;;;8.90;6.85;;;15.20;99.90;;;;;;5074760;28;20048;-70
2022/09/10 04:02:15;;;;;;;10.55;7.25;;;15.30;99.90;;;;;;5073410;28;20044;-70
2022/09/10 04:04:41;;;;;;;10.70;8.00;;;15.20;99.90;;;;;;5075160;28;20048;-70
2022/09/10 04:07:09;;;;;;;11.50;7.65;;;15.30;99.90;;;;;;5074364;28;20055;-70
2022/09/10 04:09:35;;;;;;;12.25;8.55;;;15.20;99.90;;;;;;5073321;28;20060;-70
2022/09/10 04:12:02;;;;;;;9.98;7.63;;;15.30;99.90;;;;;;5073213;28;20063;-70
2022/09/10 04:14:28;;;;;;;10.18;7.72;;;15.30;99.90;;;;;;5073864;28;20044;-70
2022/09/10 04:16:57;;;;;;;11.68;7.85;;;15.20;99.90;;;;;;5074676;28;20568;-70
2022/09/10 04:19:23;;;;;;;12.65;8.20;;;15.30;99.90;;;;;;5057684;28;20433;-70
2022/09/10 04:21:51;;;;;;;10.50;8.18;;;15.30;99.90;;;;;;5073998;28;20084;-70
2022/09/10 04:24:17;;;;;;;11.68;7.95;;;15.30;99.90;;;;;;5073952;28;20055;-70
2022/09/10 04:26:43;;;;;;;10.75;7.85;;;15.30;99.90;;;;;;5073915;28;20123;-70
2022/09/10 04:29:09;;;;;;;12.13;7.55;;;15.40;99.90;;;;;;5072679;28;20452;-70
2022/09/10 04:31:35;;;;;;;9.25;7.53;;;15.40;99.90;;;;;;5074477;28;20058;-70
2022/09/10 04:34:00;;;;;;;10.20;7.22;;;15.40;99.90;;;;;;5073711;28;20048;-70
2022/09/10 04:36:27;;;;;;;12.07;7.88;;;15.30;99.90;;;;;;5074302;28;20090;-70
2022/09/10 04:38:52;;;;;;;10.88;7.70;;;15.40;99.90;;;;;;5074564;28;20144;-70
2022/09/10 04:41:18;;;;;;;13.90;8.32;;;15.40;99.90;;;;;;5073776;28;20536;-70
2022/09/10 04:43:44;;;;;;;9.82;7.50;;;15.40;99.90;;;;;;5072668;28;20064;-70
2022/09/10 04:46:11;;;;;;;9.00;7.13;;;15.40;99.90;;;;;;5073627;28;20048;-70
2022/09/10 04:48:36;;;;;;;10.60;6.82;;;15.40;99.90;;;;;;5073893;28;20426;-70
2022/09/10 04:51:02;;;;;;;12.45;7.65;;;15.40;99.90;;;;;;5073612;28;20131;-70
2022/09/10 04:53:30;;;;;;;11.20;7.07;;;15.40;99.90;;;;;;5073568;28;20389;-70
2022/09/10 04:55:56;;;;;;;11.02;7.28;;;15.40;99.90;;;;;;5073570;28;20051;-70
2022/09/10 04:58:22;;;;;;;9.65;7.70;;;15.40;99.90;;;;;;5073433;28;20086;-70
2022/09/10 05:00:48;;;;;;;11.55;7.50;;;15.40;99.90;;;;;;5072241;28;20076;-70
2022/09/10 05:03:13;;;;;;;10.02;7.35;;;15.40;99.90;;;;;;5073092;28;20048;-70
2022/09/10 05:05:41;;;;;;;12.00;7.97;;;15.40;99.90;;;;;;5073945;28;20076;-70
2022/09/10 05:08:07;;;;;;;11.68;8.20;;;15.40;99.90;;;;;;5072372;28;20044;-70
2022/09/10 05:10:35;;;;;;;11.85;8.48;;;15.40;99.90;;;;;;5073402;28;20059;-70
2022/09/10 05:13:01;;;;;;;13.32;7.88;;;15.40;99.90;;;;;;5073767;28;20041;-70
2022/09/10 05:15:27;;;;;;;9.43;6.72;;;15.40;99.90;;;;;;5074008;28;20049;-71
2022/09/10 05:17:53;;;;;;;11.80;7.45;;;15.40;99.90;;;;;;5073548;28;20466;-70
2022/09/10 05:20:19;;;;;;;13.98;8.40;;;15.40;99.90;;;;;;5071821;28;20041;-70
2022/09/10 05:22:44;;;;;;;10.98;8.20;;;15.40;99.90;;;;;;5072984;28;20071;-70
2022/09/10 05:25:10;;;;;;;11.00;8.50;;;15.40;99.90;;;;;;5073350;28;20045;-70
2022/09/10 05:27:36;;;;;;;11.98;8.77;;;15.40;99.90;;;;;;5073442;28;20070;-70
2022/09/10 05:30:03;;;;;;;14.13;9.55;;;15.40;99.90;;;;;;5073259;28;20053;-70
2022/09/10 05:32:31;;;;;;;11.70;8.63;;;15.40;99.90;;;;;;5072785;28;20081;-69
2022/09/10 05:34:57;;;;;;;12.88;8.65;;;15.40;99.90;;;;;;5072014;28;20052;-70
2022/09/10 05:37:22;;;;;;;12.55;8.40;;;15.40;99.90;;;;;;5073065;28;20469;-71
2022/09/10 05:39:48;;;;;;;13.98;9.50;;;15.40;99.90;;;;;;5072878;28;20165;-70
2022/09/10 05:42:14;;;;;;;13.57;8.63;;;15.40;99.90;;;;;;5073134;28;20044;-70
2022/09/10 05:44:40;;;;;;;13.10;8.68;;;15.40;99.90;;;;;;5072884;28;20131;-70
2022/09/10 05:47:06;;;;;;;14.45;9.20;;;15.40;99.90;;;;;;5071718;28;20041;-70
2022/09/10 05:49:33;;;;;;;13.38;9.02;;;15.40;99.90;;;;;;5072918;28;20503;-70
2022/09/10 05:51:59;;;;;;;14.25;9.77;;;15.40;99.90;;;;;;5072908;28;20048;-70
2022/09/10 05:54:25;;;;;;;16.67;8.77;;;15.40;99.90;;;;;;5073362;28;20386;-70
2022/09/10 05:56:50;;;;;;;14.50;9.57;;;15.40;99.90;;;;;;5072797;28;20052;-70
2022/09/10 05:59:16;;;;;;;13.40;8.55;;;15.30;99.90;;;;;;5072453;28;20048;-70
2022/09/10 06:01:42;;;;;;;14.95;9.07;;;15.30;99.90;;;;;;5072649;28;20064;-70
2022/09/10 06:04:09;;;;;;;14.65;9.75;;;15.40;99.90;;;;;;5072727;28;20084;-70
2022/09/10 06:06:35;;;;;;;14.18;8.98;;;15.40;99.90;;;;;;5072789;28;20055;-70
2022/09/10 06:09:01;;;;;;;13.57;9.20;;;15.40;99.90;;;;;;5072617;28;20040;-70
2022/09/10 06:11:26;;;;;;;14.82;9.48;;;15.40;99.90;;;;;;5073953;28;20083;-70
2022/09/10 06:13:52;;;;;;;15.05;9.20;;;15.40;99.90;;;;;;5076490;28;20067;-70
2022/09/10 06:16:17;;;;;;;12.75;8.82;;;15.40;99.90;;;;;;5076502;28;20071;-70
2022/09/10 06:18:43;;;;;;;13.88;10.00;;;15.40;99.90;;;;;;5077135;28;20040;-70
2022/09/10 06:21:18;;;;;;;16.42;9.52;;;15.40;99.90;;;;;;5076945;28;20040;-70
2022/09/10 06:23:44;;;;;;;15.30;9.35;;;15.50;99.90;;;;;;5077071;28;20422;-70
2022/09/10 06:26:12;;;;;;;17.63;9.90;;;15.50;99.90;;;;;;5076297;28;20044;-70
2022/09/10 06:28:39;;;;;;;14.02;9.02;;;15.50;99.90;;;;;;5076200;28;20075;-70
2022/09/10 06:31:06;;;;;;;14.05;9.13;;;15.50;99.90;;;;;;5075169;28;20497;-70
2022/09/10 06:33:33;;;;;;;17.75;9.82;;;15.50;99.90;;;;;;5075142;28;20351;-70
2022/09/10 06:36:00;;;;;;;18.83;9.57;;;15.50;99.90;;;;;;5076128;28;20044;-70
2022/09/10 06:38:32;;;;;;;14.98;9.45;;;15.60;99.90;;;;;;5076490;28;20059;-68
2022/09/10 06:41:00;;;;;;;15.15;9.30;;;15.50;99.90;;;;;;5075744;28;20433;-65
2022/09/10 06:43:30;;;;;;;12.90;8.73;;;15.60;99.90;;;;;;5075829;28;20136;-65
2022/09/10 06:45:56;;;;;;;14.05;8.95;;;15.60;99.90;;;;;;5075893;28;20048;-65
2022/09/10 06:48:26;;;;;;;14.48;8.73;;;15.60;99.90;;;;;;5075903;28;20096;-65
2022/09/10 06:50:57;;;;;;;13.30;8.82;;;15.60;99.90;;;;;;5076213;28;20113;-65
2022/09/10 06:53:25;;;;;;;13.00;8.85;;;15.70;99.90;;;;;;5076614;28;20049;-65
2022/09/10 06:55:52;;;;;;;17.38;9.45;;;15.70;99.90;;;;;;5076271;28;20098;-65
2022/09/10 06:58:19;;;;;;;14.05;9.32;;;15.70;99.90;;;;;;5075586;28;20396;-66
2022/09/10 07:00:49;;;;;;;11.73;8.55;;;15.70;99.90;;;;;;5074424;28;20052;-66
2022/09/10 07:03:16;;;;;;;16.25;9.48;;;15.80;99.90;;;;;;5075069;28;20067;-65
2022/09/10 07:05:43;;;;;;;15.18;9.25;;;15.80;99.90;;;;;;5075985;28;20049;-65
2022/09/10 07:08:14;;;;;;;14.35;9.40;;;15.80;99.90;;;;;;5075539;28;20062;-65
2022/09/10 07:10:41;;;;;;;13.68;8.07;;;15.80;99.90;;;;;;5076295;28;20052;-65
2022/09/10 07:13:07;;;;;;;11.80;8.02;;;15.80;99.90;;;;;;5075419;28;20090;-65
2022/09/10 07:15:33;;;;;;;11.27;8.13;;;15.80;99.90;;;;;;5075700;28;20045;-65
2022/09/10 07:18:00;;;;;;;15.48;8.63;;;15.80;99.90;;;;;;5075909;28;20055;-65
2022/09/10 07:20:27;;;;;;;12.23;8.40;;;15.80;99.90;;;;;;5076133;28;20040;-66
2022/09/10 07:22:54;;;;;;;13.25;7.93;;;15.90;99.90;;;;;;5074015;28;20086;-66
2022/09/10 07:25:21;;;;;;;15.68;9.00;;;15.80;99.90;;;;;;5075454;28;20044;-65
2022/09/10 07:27:48;;;;;;;13.20;8.57;;;15.80;99.90;;;;;;5075504;28;20569;-65
2022/09/10 07:30:14;;;;;;;14.13;8.75;;;15.80;99.90;;;;;;5075150;28;20106;-66
2022/09/10 07:32:39;;;;;;;13.27;9.20;;;15.80;99.90;;;;;;5073908;28;20044;-66
2022/09/10 07:35:06;;;;;;;13.00;8.45;;;15.80;99.90;;;;;;5074963;28;20520;-65
2022/09/10 07:37:33;;;;;;;13.15;9.25;;;15.80;99.90;;;;;;5075310;28;20408;-66
2022/09/10 07:39:58;;;;;;;14.55;9.10;;;15.80;99.90;;;;;;5074922;28;20049;-66
2022/09/10 07:42:24;;;;;;;15.40;8.70;;;15.90;99.90;;;;;;5075876;28;20400;-64
2022/09/10 07:44:50;;;;;;;12.93;8.68;;;15.90;99.90;;;;;;5075479;28;20443;-64
2022/09/10 07:47:16;;;;;;;12.75;8.70;;;15.90;99.90;;;;;;5074712;28;20098;-64
2022/09/10 07:49:43;;;;;;;14.25;8.82;;;15.90;99.90;;;;;;5074694;28;20049;-64
2022/09/10 07:52:10;;;;;;;14.23;8.75;;;15.90;99.90;;;;;;5074756;28;20470;-64
2022/09/10 07:54:36;;;;;;;13.02;8.23;;;15.90;99.90;;;;;;5073800;28;20124;-64
2022/09/10 07:57:03;;;;;;;13.27;8.57;;;16.00;99.90;;;;;;5075187;28;20131;-65
2022/09/10 07:59:29;;;;;;;13.50;8.48;;;16.00;99.90;;;;;;5074405;28;20124;-65
2022/09/10 08:01:56;;;;;;;15.80;8.13;;;16.10;99.90;;;;;;5075028;28;20177;-65
2022/09/10 08:04:22;;;;;;;11.63;8.05;;;16.10;99.90;;;;;;5074197;28;20045;-65
2022/09/10 08:06:48;;;;;;;12.38;8.45;;;16.10;99.90;;;;;;5074326;28;20049;-65
2022/09/10 08:09:14;;;;;;;12.10;7.90;;;16.20;99.90;;;;;;5073199;28;20080;-65
2022/09/10 08:11:40;;;;;;;14.02;9.48;;;16.30;99.90;;;;;;5074342;28;20419;-65
2022/09/10 08:14:06;;;;;;;12.32;8.20;;;16.40;99.90;;;;;;5074188;28;20058;-65
2022/09/10 08:16:32;;;;;;;11.80;7.50;;;16.50;99.90;;;;;;5074220;28;20400;-65
2022/09/10 08:18:59;;;;;;;12.40;7.38;;;16.60;99.90;;;;;;5072876;28;20068;-65
2022/09/10 08:21:25;;;;;;;10.82;7.90;;;16.70;99.90;;;;;;5074588;28;20056;-65
2022/09/10 08:23:53;;;;;;;11.30;7.15;;;16.90;99.90;;;;;;5073791;28;20132;-65
2022/09/10 08:26:22;;;;;;;13.52;7.38;;;16.90;99.90;;;;;;5072741;28;20424;-65
2022/09/10 08:28:48;;;;;;;11.48;6.97;;;17.00;99.90;;;;;;5073779;28;20401;-65
2022/09/10 08:31:15;;;;;;;11.27;7.10;;;17.00;99.90;;;;;;5073625;28;20618;-65
2022/09/10 08:33:40;;;;;;;9.60;6.32;;;17.00;99.90;;;;;;5072382;28;20036;-65
2022/09/10 08:36:10;;;;;;;8.80;6.75;;;17.10;99.90;;;;;;5073840;28;20040;-65
2022/09/10 08:38:38;;;;;;;8.00;6.03;;;17.10;99.90;;;;;;5073820;28;20127;-64
2022/09/10 08:41:39;;;;;;;8.52;6.53;;;17.10;99.90;;;;;;5074207;28;20123;-65
2022/09/10 08:44:21;;;;;;;10.02;7.30;;;17.10;99.90;;;;;;5064200;28;20100;-65
2022/09/10 08:46:47;;;;;;;8.82;6.22;;;17.00;99.90;;;;;;5074253;28;20361;-65
2022/09/10 08:49:36;;;;;;;9.43;6.38;;;17.00;99.90;;;;;;5074291;28;20044;-65
2022/09/10 08:52:02;;;;;;;8.40;6.80;;;17.00;99.90;;;;;;5073381;28;20396;-65
2022/09/10 08:54:54;;;;;;;8.90;6.88;;;17.10;99.90;;;;;;5073648;28;20044;-65
2022/09/10 08:57:32;;;;;;;10.98;6.78;;;17.10;99.90;;;;;;5073973;28;20044;-65
2022/09/10 09:00:00;;;;;;;9.05;6.82;;;17.20;99.90;;;;;;5073192;28;20393;-65
2022/09/10 09:02:55;;;;;;;9.68;6.60;;;17.20;99.90;;;;;;5073195;28;20048;-65
2022/09/10 09:05:24;;;;;;;10.67;6.97;;;17.30;99.90;;;;;;5073995;28;20079;-65
2022/09/10 09:07:51;;;;;;;9.32;6.60;;;17.30;99.90;;;;;;5073321;28;20330;-65
2022/09/10 09:10:23;;;;;;;9.55;6.53;;;17.30;99.90;;;;;;5073402;28;20097;-65
2022/09/10 09:13:13;;;;;;;8.80;6.20;;;17.30;99.90;;;;;;5073104;28;20054;-64
2022/09/10 09:15:55;;;;;;;11.10;7.40;;;17.30;99.90;;;;;;5073138;28;20363;-65
2022/09/10 09:18:35;;;;;;;7.85;6.47;;;17.30;99.90;;;;;;5072977;28;20063;-64
2022/09/10 09:21:17;;;;;;;9.40;6.25;;;17.20;99.90;;;;;;5074045;28;20385;-65
2022/09/10 09:23:57;;;;;;;8.25;6.40;;;17.20;99.90;;;;;;5073227;28;20125;-65
2022/09/10 09:26:33;;;;;;;8.63;6.25;;;17.30;99.90;;;;;;5073582;28;20041;-64
2022/09/10 09:29:01;;;;;;;;;;;17.40;99.90;;;;;;5073290;28;20485;-65
2022/09/10 09:31:32;;;;;;;10.55;6.35;;;17.50;99.90;;;;;;5073254;28;20006;-65
2022/09/10 09:34:09;;;;;;;7.25;5.35;;;17.70;99.90;;;;;;5073170;28;20051;-64
2022/09/10 09:36:43;;;;;;;7.18;5.10;;;17.80;99.90;;;;;;5073901;28;20102;-64
2022/09/10 09:39:16;;;;;;;5.82;4.35;;;18.00;99.90;;;;;;5071724;28;20543;-64
2022/09/10 09:41:51;;;;;;;7.00;5.30;;;18.10;99.90;;;;;;5073760;28;20415;-65
2022/09/10 09:44:30;;;;;;;8.35;5.03;;;18.20;99.90;;;;;;5073735;28;20147;-65
2022/09/10 09:46:56;;;;;;;6.38;5.38;;;18.30;99.90;;;;;;5075034;28;20150;-64
2022/09/10 09:49:24;;;;;;;6.80;4.93;;;18.30;99.90;;;;;;5075608;28;20049;-65
2022/09/10 09:51:50;;;;;;;5.82;4.78;;;18.40;99.90;;;;;;5076643;28;20485;-65
2022/09/10 09:54:24;;;;;;;9.00;5.25;;;18.50;99.90;;;;;;5076978;28;20052;-64
2022/09/10 09:56:53;;;;;;;7.38;4.38;;;18.50;99.90;;;;;;5076662;28;20428;-65
2022/09/10 09:59:28;;;;;;;5.70;4.18;;;18.50;99.90;;;;;;5076692;28;20048;-65
2022/09/10 10:01:59;;;;;;;6.22;4.20;;;18.60;99.90;;;;;;5075081;28;20067;-65
2022/09/10 10:04:29;;;;;;;6.22;4.55;;;18.60;99.90;;;;;;5077269;28;20102;-66
2022/09/10 10:06:58;;;;;;;7.93;4.70;;;18.60;99.90;;;;;;5077205;28;20047;-65
2022/09/10 10:09:27;;;;;;;7.35;4.32;;;18.70;99.90;;;;;;5076229;28;20147;-65
2022/09/10 10:12:04;;;;;;;5.10;3.80;;;18.80;99.90;;;;;;5077280;28;20048;-65
2022/09/10 10:14:30;;;;;;;4.80;3.60;;;18.90;99.90;;;;;;5076091;28;20091;-65
2022/09/10 10:16:59;;;;;;;4.85;3.90;;;18.90;99.90;;;;;;5077224;28;20087;-65
2022/09/10 10:19:39;;;;;;;5.68;3.75;;;18.90;99.90;;;;;;5075336;28;20049;-66
2022/09/10 10:22:17;;;;;;;5.18;4.00;;;19.00;99.90;;;;;;5076625;28;20080;-65
2022/09/10 10:24:44;;;;;;;5.50;3.60;;;19.10;99.90;;;;;;5076295;28;20504;-65
2022/09/10 10:27:31;;;;;;;5.10;4.03;;;19.10;99.90;;;;;;5075236;28;20152;-66
2022/09/10 10:30:20;;;;;;;6.32;3.80;;;19.10;99.90;;;;;;5074973;28;20052;-65
2022/09/10 10:32:58;;;;;;;6.15;4.50;;;19.20;99.90;;;;;;5076436;28;20055;-65
2022/09/10 10:35:32;;;;;;;6.55;4.05;;;19.30;99.90;;;;;;5076249;28;20516;-65
2022/09/10 10:38:30;;;;;;;6.05;4.57;;;19.30;99.90;;;;;;5076875;28;20084;-64
2022/09/10 10:41:30;;;;;;;5.78;4.53;;;19.40;99.90;;;;;;5076053;28;20045;-64
2022/09/10 10:44:15;;;;;;;5.28;4.35;;;19.50;99.90;;;;;;5075838;28;20045;-65
2022/09/10 10:47:20;;;;;;;7.20;5.03;;;19.50;99.90;;;;;;5076549;28;20123;-64
2022/09/10 10:50:04;;;;;;;5.32;4.45;;;19.60;99.90;;;;;;5038577;28;20060;-65
2022/09/10 10:52:43;;;;;;;5.95;4.35;;;19.60;99.90;;;;;;5076397;28;20442;-64
2022/09/10 10:55:12;;;;;;;4.28;3.55;;;19.70;99.90;;;;;;5075799;28;20055;-65
2022/09/10 10:57:55;;;;;;;5.78;4.40;;;19.90;99.90;;;;;;5074708;28;20041;-65
2022/09/10 11:00:21;;;;;;;6.63;4.10;;;19.90;99.90;;;;;;5075788;28;20041;-65
2022/09/10 11:02:54;;;;;;;5.55;3.65;;;19.90;99.90;;;;;;5075607;28;20053;-64
2022/09/10 11:05:30;;;;;;;4.78;3.65;;;19.90;99.90;;;;;;5075404;28;20045;-66
2022/09/10 11:07:58;;;;;;;5.07;3.50;;;19.90;99.90;;;;;;5074556;28;20040;-65
2022/09/10 11:10:55;;;;;;;4.57;3.53;;;19.80;99.90;;;;;;5074369;28;20175;-65
2022/09/10 11:13:45;;;;;;;5.15;3.67;;;19.80;99.90;;;;;;5076338;28;20041;-65
2022/09/10 11:16:18;;;;;;;5.43;3.63;;;19.70;99.90;;;;;;5075433;28;20052;-65
2022/09/10 11:19:02;;;;;;;5.40;3.67;;;19.60;99.90;;;;;;5074799;28;20088;-65
2022/09/10 11:21:37;;;;;;;4.28;3.30;;;19.60;99.90;;;;;;5075394;28;20048;-65
2022/09/10 11:24:20;;;;;;;4.63;3.72;;;19.70;99.90;;;;;;5076134;28;20442;-65
2022/09/10 11:27:01;;;;;;;4.25;3.72;;;19.80;99.90;;;;;;5075810;28;20044;-65
2022/09/10 11:29:41;;;;;;;6.45;4.03;;;19.90;99.90;;;;;;5075146;28;20132;-65
2022/09/10 11:32:11;;;;;;;4.93;3.75;;;20.00;99.90;;;;;;5075744;28;20131;-63
2022/09/10 11:35:10;;;;;;;4.97;3.92;;;20.20;99.90;;;;;;5075131;28;20145;-63
2022/09/10 11:38:06;;;;;;;5.00;3.25;;;20.40;99.90;;;;;;5074534;28;20087;-63
2022/09/10 11:40:56;;;;;;;4.07;3.40;;;20.60;99.90;;;;;;5075367;28;20060;-62
2022/09/10 11:43:36;;;;;;;6.45;3.78;;;20.60;99.90;;;;;;5075631;28;20381;-63
2022/09/10 11:46:07;;;;;;;5.30;3.53;;;20.60;99.90;;;;;;5074876;28;20048;-63
2022/09/10 11:48:50;;;;;;;4.55;3.55;;;20.50;99.90;;;;;;5075446;28;20389;-63
2022/09/10 11:51:33;;;;;;;4.22;3.10;;;20.40;99.90;;;;;;5075326;28;20087;-62
2022/09/10 11:54:01;;;;;;;5.53;3.60;;;20.30;99.90;;;;;;5075345;28;20119;-62
2022/09/10 11:56:45;;;;;;;4.72;3.50;;;20.20;99.90;;;;;;5075451;28;20051;-62
2022/09/10 11:59:31;;;;;;;4.68;3.42;;;20.30;99.90;;;;;;5074539;28;20049;-63
2022/09/10 12:02:15;;;;;;;4.13;3.13;;;20.40;99.90;;;;;;5074669;28;20062;-62
2022/09/10 12:05:01;;;;;;;8.18;3.67;;;20.50;99.90;;;;;;5075636;28;20102;-63
2022/09/10 12:07:48;;;;;;;6.60;4.00;;;20.70;99.90;;;;;;5075264;28;20044;-63
2022/09/10 12:10:44;;;;;;;4.45;3.67;;;20.80;99.90;;;;;;5074672;28;20048;-63
2022/09/10 12:13:12;;;;;;;4.40;3.00;;;20.80;99.90;;;;;;5074382;28;20040;-63
2022/09/10 12:15:38;;;;;;;4.18;3.22;;;20.80;99.90;;;;;;5074238;28;20050;-63
2022/09/10 12:18:16;;;;;;;4.47;3.22;;;20.90;99.90;;;;;;5074431;28;20124;-62
2022/09/10 12:20:55;;;;;;;5.75;3.85;;;20.90;99.90;;;;;;5073468;28;20044;-63
2022/09/10 12:23:31;;;;;;;6.72;3.70;;;20.80;99.90;;;;;;5072770;28;20036;-63
2022/09/10 12:26:00;;;;;;;6.50;3.58;;;20.90;99.90;;;;;;5055976;28;20493;-64
2022/09/10 12:28:40;;;;;;;5.60;4.18;;;20.80;99.90;;;;;;5072774;28;20047;-63
2022/09/10 12:31:08;;;;;;;5.35;4.63;;;20.90;99.90;;;;;;5073977;28;20051;-64
2022/09/10 12:33:56;;;;;;;5.95;4.50;;;20.90;99.90;;;;;;5073953;28;20091;-64
2022/09/10 12:36:24;;;;;;;6.05;4.43;;;20.90;99.90;;;;;;5067021;28;20091;-65
2022/09/10 12:39:23;;;;;;;6.22;4.03;;;20.80;99.90;;;;;;5074101;28;20048;-64
2022/09/10 12:41:48;;;;;;;5.78;4.40;;;20.80;99.90;;;;;;5074201;28;20048;-65
2022/09/10 12:44:34;;;;;;;6.25;4.55;;;20.80;99.90;;;;;;5073751;28;20071;-65
2022/09/10 12:47:15;;;;;;;6.15;4.47;;;20.80;99.90;;;;;;5073815;28;20044;-65
2022/09/10 12:50:00;;;;;;;6.63;5.03;;;20.70;99.90;;;;;;5073593;28;20167;-65
2022/09/10 12:52:49;;;;;;;5.82;4.20;;;20.70;99.90;;;;;;5073580;28;20051;-64
2022/09/10 12:56:01;;;;;;;4.53;3.95;;;20.70;99.90;;;;;;5073609;28;20048;-65
2022/09/10 12:58:54;;;;;;;5.32;4.30;;;20.70;99.90;;;;;;5068616;28;20079;-65
2022/09/10 13:01:45;;;;;;;5.97;4.25;;;20.60;99.90;;;;;;5073842;28;20052;-65
2022/09/10 13:04:27;;;;;;;7.80;5.18;;;20.60;99.90;;;;;;5073709;28;20051;-64
2022/09/10 13:07:05;;;;;;;6.18;5.28;;;20.60;99.90;;;;;;5074253;28;20040;-64